sensor_id;sensor_type;location;lat;lon;timestamp;temperature;humidity
31639;DHT22;18248;51.522;7.020;2023-03-31T00:02:40;12.20;99.90
31639;DHT22;18248;51.522;7.020;2023-03-31T00:05:39;12.10;99.90
31639;DHT22;18248;51.522;7.020;2023-03-31T00:08:37;12.10;99.90
31639;DHT22;18248;51.522;7.020;2023-03-31T00:11:38;12.10;99.90
31639;DHT22;18248;51.522;7.020;2023-03-31T00:14:37;12.00;99.90
31639;DHT22;18248;51.522;7.020;2023-03-31T00:17:36;12.00;99.90
31639;DHT22;18248;51.522;7.020;2023-03-31T00:20:34;12.00;99.90
31639;DHT22;18248;51.522;7.020;2023-03-31T00:23:35;12.00;99.90
31639;DHT22;18248;51.522;7.020;2023-03-31T00:26:34;12.00;99.90
31639;DHT22;18248;51.522;7.020;2023-03-31T00:29:36;12.00;99.90
31639;DHT22;18248;51.522;7.020;2023-03-31T00:32:38;12.10;99.90
31639;DHT22;18248;51.522;7.020;2023-03-31T00:35:37;12.00;99.90
31639;DHT22;18248;51.522;7.020;2023-03-31T00:38:36;12.00;99.90
31639;DHT22;18248;51.522;7.020;2023-03-31T00:41:37;12.10;99.90
31639;DHT22;18248;51.522;7.020;2023-03-31T00:45:16;12.10;99.90
31639;DHT22;18248;51.522;7.020;2023-03-31T00:48:07;12.10;99.90
31639;DHT22;18248;51.522;7.020;2023-03-31T00:51:08;12.10;99.90
31639;DHT22;18248;51.522;7.020;2023-03-31T00:54:07;12.10;99.90
31639;DHT22;18248;51.522;7.020;2023-03-31T00:57:06;12.10;99.90
31639;DHT22;18248;51.522;7.020;2023-03-31T01:00:09;12.10;99.90
31639;DHT22;18248;51.522;7.020;2023-03-31T01:03:12;12.10;99.90
31639;DHT22;18248;51.522;7.020;2023-03-31T01:06:13;12.10;99.90
31639;DHT22;18248;51.522;7.020;2023-03-31T01:09:14;12.10;99.90
31639;DHT22;18248;51.522;7.020;2023-03-31T01:12:15;12.10;99.90
31639;DHT22;18248;51.522;7.020;2023-03-31T01:15:14;12.10;99.90
31639;DHT22;18248;51.522;7.020;2023-03-31T01:18:14;12.10;99.90
31639;DHT22;18248;51.522;7.020;2023-03-31T01:21:47;12.10;99.90
31639;DHT22;18248;51.522;7.020;2023-03-31T01:32:12;12.10;99.90
31639;DHT22;18248;51.522;7.020;2023-03-31T01:42:46;12.00;99.90
31639;DHT22;18248;51.522;7.020;2023-03-31T01:52:37;11.90;99.90
31639;DHT22;18248;51.522;7.020;2023-03-31T01:55:45;11.90;99.90
31639;DHT22;18248;51.522;7.020;2023-03-31T01:58:58;11.90;99.90
31639;DHT22;18248;51.522;7.020;2023-03-31T02:02:09;11.90;99.90
31639;DHT22;18248;51.522;7.020;2023-03-31T02:05:18;11.90;99.90
31639;DHT22;18248;51.522;7.020;2023-03-31T02:08:42;11.90;99.90
31639;DHT22;18248;51.522;7.020;2023-03-31T02:11:43;11.90;99.90
31639;DHT22;18248;51.522;7.020;2023-03-31T02:14:45;11.90;99.90
31639;DHT22;18248;51.522;7.020;2023-03-31T02:17:48;11.90;99.90
31639;DHT22;18248;51.522;7.020;2023-03-31T02:20:49;11.90;99.90
31639;DHT22;18248;51.522;7.020;2023-03-31T02:23:50;11.90;99.90
31639;DHT22;18248;51.522;7.020;2023-03-31T02:27:16;11.90;99.90
31639;DHT22;18248;51.522;7.020;2023-03-31T02:30:15;11.80;99.90
31639;DHT22;18248;51.522;7.020;2023-03-31T02:33:14;11.80;99.90
31639;DHT22;18248;51.522;7.020;2023-03-31T02:36:14;11.80;99.90
31639;DHT22;18248;51.522;7.020;2023-03-31T02:39:19;11.80;99.90
31639;DHT22;18248;51.522;7.020;2023-03-31T02:42:20;11.80;99.90
31639;DHT22;18248;51.522;7.020;2023-03-31T02:48:46;11.80;99.90
31639;DHT22;18248;51.522;7.020;2023-03-31T02:55:36;11.80;99.90
31639;DHT22;18248;51.522;7.020;2023-03-31T03:02:07;11.80;99.90
31639;DHT22;18248;51.522;7.020;2023-03-31T03:05:31;11.80;99.90
31639;DHT22;18248;51.522;7.020;2023-03-31T03:15:11;11.80;99.90
31639;DHT22;18248;51.522;7.020;2023-03-31T03:18:11;11.70;99.90
31639;DHT22;18248;51.522;7.020;2023-03-31T03:21:09;11.70;99.90
31639;DHT22;18248;51.522;7.020;2023-03-31T03:24:08;11.80;99.90
31639;DHT22;18248;51.522;7.020;2023-03-31T03:27:07;11.70;99.90
31639;DHT22;18248;51.522;7.020;2023-03-31T03:30:07;11.70;99.90
31639;DHT22;18248;51.522;7.020;2023-03-31T03:33:08;11.80;99.90
31639;DHT22;18248;51.522;7.020;2023-03-31T03:36:08;11.70;99.90
31639;DHT22;18248;51.522;7.020;2023-03-31T03:39:07;11.70;99.90
31639;DHT22;18248;51.522;7.020;2023-03-31T03:42:05;11.70;99.90
31639;DHT22;18248;51.522;7.020;2023-03-31T03:45:04;11.70;99.90
31639;DHT22;18248;51.522;7.020;2023-03-31T03:48:03;11.70;99.90
31639;DHT22;18248;51.522;7.020;2023-03-31T03:51:03;11.70;99.90
31639;DHT22;18248;51.522;7.020;2023-03-31T03:54:02;11.70;99.90
31639;DHT22;18248;51.522;7.020;2023-03-31T03:57:00;11.70;99.90
31639;DHT22;18248;51.522;7.020;2023-03-31T03:59:59;11.70;99.90
31639;DHT22;18248;51.522;7.020;2023-03-31T04:02:58;11.70;99.90
31639;DHT22;18248;51.522;7.020;2023-03-31T04:05:57;11.70;99.90
31639;DHT22;18248;51.522;7.020;2023-03-31T04:08:55;11.70;99.90
31639;DHT22;18248;51.522;7.020;2023-03-31T04:11:54;11.70;99.90
31639;DHT22;18248;51.522;7.020;2023-03-31T04:14:53;11.70;99.90
31639;DHT22;18248;51.522;7.020;2023-03-31T04:17:52;11.70;99.90
31639;DHT22;18248;51.522;7.020;2023-03-31T04:20:52;11.70;99.90
31639;DHT22;18248;51.522;7.020;2023-03-31T04:24:05;11.70;99.90
31639;DHT22;18248;51.522;7.020;2023-03-31T04:27:05;11.70;99.90
31639;DHT22;18248;51.522;7.020;2023-03-31T04:30:07;11.70;99.90
31639;DHT22;18248;51.522;7.020;2023-03-31T04:33:06;11.60;99.90
31639;DHT22;18248;51.522;7.020;2023-03-31T04:36:05;11.60;99.90
31639;DHT22;18248;51.522;7.020;2023-03-31T04:39:16;11.60;99.90
31639;DHT22;18248;51.522;7.020;2023-03-31T04:42:15;11.60;99.90
31639;DHT22;18248;51.522;7.020;2023-03-31T04:45:14;11.60;99.90
31639;DHT22;18248;51.522;7.020;2023-03-31T04:48:12;11.60;99.90
31639;DHT22;18248;51.522;7.020;2023-03-31T04:51:11;11.70;99.90
31639;DHT22;18248;51.522;7.020;2023-03-31T04:54:13;11.70;99.90
31639;DHT22;18248;51.522;7.020;2023-03-31T04:57:13;11.60;99.90
31639;DHT22;18248;51.522;7.020;2023-03-31T05:00:12;11.70;99.90
31639;DHT22;18248;51.522;7.020;2023-03-31T05:03:12;11.70;99.90
31639;DHT22;18248;51.522;7.020;2023-03-31T05:06:10;11.60;99.90
31639;DHT22;18248;51.522;7.020;2023-03-31T05:09:14;11.60;99.90
31639;DHT22;18248;51.522;7.020;2023-03-31T05:12:12;11.60;99.90
31639;DHT22;18248;51.522;7.020;2023-03-31T05:15:12;11.60;99.90
31639;DHT22;18248;51.522;7.020;2023-03-31T05:18:10;11.50;99.90
31639;DHT22;18248;51.522;7.020;2023-03-31T05:21:17;11.50;99.90
31639;DHT22;18248;51.522;7.020;2023-03-31T05:24:17;11.50;99.90
31639;DHT22;18248;51.522;7.020;2023-03-31T05:27:18;11.50;99.90
31639;DHT22;18248;51.522;7.020;2023-03-31T05:30:19;11.40;99.90
31639;DHT22;18248;51.522;7.020;2023-03-31T05:33:17;11.40;99.90
31639;DHT22;18248;51.522;7.020;2023-03-31T05:36:16;11.40;99.90
31639;DHT22;18248;51.522;7.020;2023-03-31T05:39:15;11.40;99.90
31639;DHT22;18248;51.522;7.020;2023-03-31T05:42:14;11.40;99.90
31639;DHT22;18248;51.522;7.020;2023-03-31T05:45:12;11.40;99.90
31639;DHT22;18248;51.522;7.020;2023-03-31T05:48:11;11.40;99.90
31639;DHT22;18248;51.522;7.020;2023-03-31T05:51:09;11.40;99.90
31639;DHT22;18248;51.522;7.020;2023-03-31T05:54:08;11.40;99.90
31639;DHT22;18248;51.522;7.020;2023-03-31T05:57:06;11.40;99.90
31639;DHT22;18248;51.522;7.020;2023-03-31T06:00:06;11.40;99.90
31639;DHT22;18248;51.522;7.020;2023-03-31T06:03:07;11.50;99.90
31639;DHT22;18248;51.522;7.020;2023-03-31T06:06:06;11.50;99.90
31639;DHT22;18248;51.522;7.020;2023-03-31T06:09:05;11.50;99.90
31639;DHT22;18248;51.522;7.020;2023-03-31T06:12:04;11.50;99.90
31639;DHT22;18248;51.522;7.020;2023-03-31T06:15:04;11.50;99.90
31639;DHT22;18248;51.522;7.020;2023-03-31T06:18:02;11.60;99.90
31639;DHT22;18248;51.522;7.020;2023-03-31T06:21:02;11.60;99.90
31639;DHT22;18248;51.522;7.020;2023-03-31T06:24:00;11.70;99.90
31639;DHT22;18248;51.522;7.020;2023-03-31T06:27:00;11.70;99.90
31639;DHT22;18248;51.522;7.020;2023-03-31T06:29:59;11.70;99.90
31639;DHT22;18248;51.522;7.020;2023-03-31T06:32:57;11.70;99.90
31639;DHT22;18248;51.522;7.020;2023-03-31T06:35:56;11.70;99.90
31639;DHT22;18248;51.522;7.020;2023-03-31T06:38:55;11.70;99.90
31639;DHT22;18248;51.522;7.020;2023-03-31T06:41:54;11.70;99.90
31639;DHT22;18248;51.522;7.020;2023-03-31T06:44:52;11.60;99.90
31639;DHT22;18248;51.522;7.020;2023-03-31T06:47:52;11.60;99.90
31639;DHT22;18248;51.522;7.020;2023-03-31T06:50:55;11.60;99.90
31639;DHT22;18248;51.522;7.020;2023-03-31T06:53:56;11.60;99.90
31639;DHT22;18248;51.522;7.020;2023-03-31T06:56:54;11.60;99.90
31639;DHT22;18248;51.522;7.020;2023-03-31T06:59:53;11.50;99.90
31639;DHT22;18248;51.522;7.020;2023-03-31T07:02:53;11.40;99.90
31639;DHT22;18248;51.522;7.020;2023-03-31T07:05:52;11.50;99.90
31639;DHT22;18248;51.522;7.020;2023-03-31T07:08:51;11.50;99.90
31639;DHT22;18248;51.522;7.020;2023-03-31T07:11:51;11.40;99.90
31639;DHT22;18248;51.522;7.020;2023-03-31T07:14:50;11.50;99.90
31639;DHT22;18248;51.522;7.020;2023-03-31T07:17:48;11.40;99.90
31639;DHT22;18248;51.522;7.020;2023-03-31T07:20:51;11.40;99.90
31639;DHT22;18248;51.522;7.020;2023-03-31T07:23:50;11.40;99.90
31639;DHT22;18248;51.522;7.020;2023-03-31T07:26:48;11.40;99.90
31639;DHT22;18248;51.522;7.020;2023-03-31T07:29:49;11.40;99.90
31639;DHT22;18248;51.522;7.020;2023-03-31T07:32:49;11.40;99.90
31639;DHT22;18248;51.522;7.020;2023-03-31T07:35:48;11.40;99.90
31639;DHT22;18248;51.522;7.020;2023-03-31T07:38:46;11.40;99.90
31639;DHT22;18248;51.522;7.020;2023-03-31T07:41:46;11.40;99.90
31639;DHT22;18248;51.522;7.020;2023-03-31T07:44:45;11.40;99.90
31639;DHT22;18248;51.522;7.020;2023-03-31T07:47:44;11.40;99.90
31639;DHT22;18248;51.522;7.020;2023-03-31T07:50:43;11.40;99.90
31639;DHT22;18248;51.522;7.020;2023-03-31T07:53:42;11.50;99.90
31639;DHT22;18248;51.522;7.020;2023-03-31T07:56:40;11.50;99.90
31639;DHT22;18248;51.522;7.020;2023-03-31T07:59:39;11.50;99.90
31639;DHT22;18248;51.522;7.020;2023-03-31T08:02:38;11.40;99.90
31639;DHT22;18248;51.522;7.020;2023-03-31T08:05:38;11.50;99.90
31639;DHT22;18248;51.522;7.020;2023-03-31T08:08:37;11.50;99.90
31639;DHT22;18248;51.522;7.020;2023-03-31T08:11:35;11.40;99.90
31639;DHT22;18248;51.522;7.020;2023-03-31T08:14:34;11.50;99.90
31639;DHT22;18248;51.522;7.020;2023-03-31T08:17:33;11.50;99.90
31639;DHT22;18248;51.522;7.020;2023-03-31T08:20:31;11.50;99.90
31639;DHT22;18248;51.522;7.020;2023-03-31T08:23:30;11.50;99.90
31639;DHT22;18248;51.522;7.020;2023-03-31T08:26:28;11.60;99.90
31639;DHT22;18248;51.522;7.020;2023-03-31T08:29:29;11.50;99.90
31639;DHT22;18248;51.522;7.020;2023-03-31T08:32:27;11.50;99.90
31639;DHT22;18248;51.522;7.020;2023-03-31T08:35:26;11.50;99.90
31639;DHT22;18248;51.522;7.020;2023-03-31T08:38:25;11.50;99.90
31639;DHT22;18248;51.522;7.020;2023-03-31T08:48:33;11.60;99.90
31639;DHT22;18248;51.522;7.020;2023-03-31T08:51:40;11.70;99.90
31639;DHT22;18248;51.522;7.020;2023-03-31T08:54:45;11.80;99.90
31639;DHT22;18248;51.522;7.020;2023-03-31T09:01:00;12.00;99.90
31639;DHT22;18248;51.522;7.020;2023-03-31T09:08:03;12.10;99.90
31639;DHT22;18248;51.522;7.020;2023-03-31T09:14:09;12.20;99.90
31639;DHT22;18248;51.522;7.020;2023-03-31T09:17:39;12.20;99.90
31639;DHT22;18248;51.522;7.020;2023-03-31T09:20:39;12.20;99.90
31639;DHT22;18248;51.522;7.020;2023-03-31T09:23:51;12.30;99.90
31639;DHT22;18248;51.522;7.020;2023-03-31T09:27:27;12.30;99.90
31639;DHT22;18248;51.522;7.020;2023-03-31T09:30:28;12.30;99.90
31639;DHT22;18248;51.522;7.020;2023-03-31T09:33:29;12.30;99.90
31639;DHT22;18248;51.522;7.020;2023-03-31T09:36:30;12.30;99.90
31639;DHT22;18248;51.522;7.020;2023-03-31T09:39:30;12.40;99.90
31639;DHT22;18248;51.522;7.020;2023-03-31T09:42:29;12.30;99.90
31639;DHT22;18248;51.522;7.020;2023-03-31T09:45:29;12.40;99.90
31639;DHT22;18248;51.522;7.020;2023-03-31T09:48:33;12.40;99.90
31639;DHT22;18248;51.522;7.020;2023-03-31T09:51:34;12.40;99.90
31639;DHT22;18248;51.522;7.020;2023-03-31T09:54:45;12.40;99.90
31639;DHT22;18248;51.522;7.020;2023-03-31T09:57:45;12.50;99.90
31639;DHT22;18248;51.522;7.020;2023-03-31T10:01:02;12.50;99.90
31639;DHT22;18248;51.522;7.020;2023-03-31T10:04:07;12.50;99.90
31639;DHT22;18248;51.522;7.020;2023-03-31T10:07:06;12.60;99.90
31639;DHT22;18248;51.522;7.020;2023-03-31T10:10:10;12.60;99.90
31639;DHT22;18248;51.522;7.020;2023-03-31T10:13:22;12.70;99.90
31639;DHT22;18248;51.522;7.020;2023-03-31T10:16:27;12.90;99.90
31639;DHT22;18248;51.522;7.020;2023-03-31T10:19:29;13.00;99.90
31639;DHT22;18248;51.522;7.020;2023-03-31T10:22:30;13.20;99.90
31639;DHT22;18248;51.522;7.020;2023-03-31T10:25:31;13.50;99.90
31639;DHT22;18248;51.522;7.020;2023-03-31T10:28:34;13.60;99.90
31639;DHT22;18248;51.522;7.020;2023-03-31T10:31:35;13.70;99.90
31639;DHT22;18248;51.522;7.020;2023-03-31T10:34:40;13.70;99.90
31639;DHT22;18248;51.522;7.020;2023-03-31T10:37:39;13.60;99.90
31639;DHT22;18248;51.522;7.020;2023-03-31T10:40:41;13.40;99.90
31639;DHT22;18248;51.522;7.020;2023-03-31T10:43:51;13.30;99.90
31639;DHT22;18248;51.522;7.020;2023-03-31T10:46:51;13.10;99.90
31639;DHT22;18248;51.522;7.020;2023-03-31T10:49:55;13.10;99.90
31639;DHT22;18248;51.522;7.020;2023-03-31T10:53:21;13.10;99.90
31639;DHT22;18248;51.522;7.020;2023-03-31T10:59:49;13.10;99.90
31639;DHT22;18248;51.522;7.020;2023-03-31T11:16:59;13.70;99.90
31639;DHT22;18248;51.522;7.020;2023-03-31T11:29:43;12.80;99.90
31639;DHT22;18248;51.522;7.020;2023-03-31T11:36:19;12.90;99.90
31639;DHT22;18248;51.522;7.020;2023-03-31T11:43:01;13.30;99.90
31639;DHT22;18248;51.522;7.020;2023-03-31T11:46:07;13.50;99.90
31639;DHT22;18248;51.522;7.020;2023-03-31T11:49:27;13.60;99.90
31639;DHT22;18248;51.522;7.020;2023-03-31T11:52:33;13.80;99.90
31639;DHT22;18248;51.522;7.020;2023-03-31T11:55:33;13.90;99.90
31639;DHT22;18248;51.522;7.020;2023-03-31T11:58:52;14.10;99.90
31639;DHT22;18248;51.522;7.020;2023-03-31T12:02:16;14.10;99.90
31639;DHT22;18248;51.522;7.020;2023-03-31T12:05:19;14.20;99.90
31639;DHT22;18248;51.522;7.020;2023-03-31T12:11:30;14.20;99.90
31639;DHT22;18248;51.522;7.020;2023-03-31T12:17:33;14.30;99.90
31639;DHT22;18248;51.522;7.020;2023-03-31T12:20:38;14.30;99.90
31639;DHT22;18248;51.522;7.020;2023-03-31T12:23:43;14.30;99.90
31639;DHT22;18248;51.522;7.020;2023-03-31T12:27:19;14.30;99.90
31639;DHT22;18248;51.522;7.020;2023-03-31T12:30:41;14.30;99.90
31639;DHT22;18248;51.522;7.020;2023-03-31T12:33:43;14.30;99.90
31639;DHT22;18248;51.522;7.020;2023-03-31T12:40:06;14.20;99.90
31639;DHT22;18248;51.522;7.020;2023-03-31T12:56:06;14.10;99.90
31639;DHT22;18248;51.522;7.020;2023-03-31T12:59:35;14.10;99.90
31639;DHT22;18248;51.522;7.020;2023-03-31T13:02:33;14.20;99.90
31639;DHT22;18248;51.522;7.020;2023-03-31T13:08:55;14.30;99.90
31639;DHT22;18248;51.522;7.020;2023-03-31T13:11:54;14.40;99.90
31639;DHT22;18248;51.522;7.020;2023-03-31T13:14:57;14.60;99.90
31639;DHT22;18248;51.522;7.020;2023-03-31T13:18:03;14.70;99.90
31639;DHT22;18248;51.522;7.020;2023-03-31T13:21:04;14.70;99.90
31639;DHT22;18248;51.522;7.020;2023-03-31T13:24:06;14.70;99.90
31639;DHT22;18248;51.522;7.020;2023-03-31T13:27:29;14.70;99.90
31639;DHT22;18248;51.522;7.020;2023-03-31T13:33:53;14.70;99.90
31639;DHT22;18248;51.522;7.020;2023-03-31T14:00:20;14.90;99.90
31639;DHT22;18248;51.522;7.020;2023-03-31T14:06:53;14.90;99.90
31639;DHT22;18248;51.522;7.020;2023-03-31T14:09:53;15.00;99.90
31639;DHT22;18248;51.522;7.020;2023-03-31T14:13:10;15.00;99.90
31639;DHT22;18248;51.522;7.020;2023-03-31T14:16:09;15.00;99.90
31639;DHT22;18248;51.522;7.020;2023-03-31T14:29:27;15.20;99.90
31639;DHT22;18248;51.522;7.020;2023-03-31T14:32:42;15.20;99.90
31639;DHT22;18248;51.522;7.020;2023-03-31T14:39:05;15.20;99.90
31639;DHT22;18248;51.522;7.020;2023-03-31T14:42:10;15.20;99.90
31639;DHT22;18248;51.522;7.020;2023-03-31T14:45:21;15.20;99.90
31639;DHT22;18248;51.522;7.020;2023-03-31T14:48:22;15.20;99.90
31639;DHT22;18248;51.522;7.020;2023-03-31T14:51:29;15.10;99.90
31639;DHT22;18248;51.522;7.020;2023-03-31T14:54:33;15.10;99.90
31639;DHT22;18248;51.522;7.020;2023-03-31T14:57:37;15.10;99.90
31639;DHT22;18248;51.522;7.020;2023-03-31T15:00:38;15.00;99.90
31639;DHT22;18248;51.522;7.020;2023-03-31T15:03:39;14.90;99.90
31639;DHT22;18248;51.522;7.020;2023-03-31T15:06:44;14.70;99.90
31639;DHT22;18248;51.522;7.020;2023-03-31T15:09:48;14.50;99.90
31639;DHT22;18248;51.522;7.020;2023-03-31T15:12:48;14.40;99.90
31639;DHT22;18248;51.522;7.020;2023-03-31T15:15:47;14.20;99.90
31639;DHT22;18248;51.522;7.020;2023-03-31T15:18:46;14.20;99.90
31639;DHT22;18248;51.522;7.020;2023-03-31T15:21:52;14.20;99.90
31639;DHT22;18248;51.522;7.020;2023-03-31T15:24:52;14.20;99.90
31639;DHT22;18248;51.522;7.020;2023-03-31T15:27:58;14.20;99.90
31639;DHT22;18248;51.522;7.020;2023-03-31T15:30:58;14.10;99.90
31639;DHT22;18248;51.522;7.020;2023-03-31T15:33:57;14.00;99.90
31639;DHT22;18248;51.522;7.020;2023-03-31T15:36:56;14.00;99.90
31639;DHT22;18248;51.522;7.020;2023-03-31T15:39:59;14.00;99.90
31639;DHT22;18248;51.522;7.020;2023-03-31T15:46:10;13.90;99.90
31639;DHT22;18248;51.522;7.020;2023-03-31T15:49:20;13.90;99.90
31639;DHT22;18248;51.522;7.020;2023-03-31T15:52:47;13.90;99.90
31639;DHT22;18248;51.522;7.020;2023-03-31T15:55:46;13.90;99.90
31639;DHT22;18248;51.522;7.020;2023-03-31T15:58:52;13.80;99.90
31639;DHT22;18248;51.522;7.020;2023-03-31T16:01:53;13.70;99.90
31639;DHT22;18248;51.522;7.020;2023-03-31T16:04:58;13.70;99.90
31639;DHT22;18248;51.522;7.020;2023-03-31T16:07:56;13.70;99.90
31639;DHT22;18248;51.522;7.020;2023-03-31T16:11:06;13.60;99.90
31639;DHT22;18248;51.522;7.020;2023-03-31T16:14:19;13.60;99.90
31639;DHT22;18248;51.522;7.020;2023-03-31T16:17:39;13.60;99.90
31639;DHT22;18248;51.522;7.020;2023-03-31T16:20:50;13.60;99.90
31639;DHT22;18248;51.522;7.020;2023-03-31T16:23:53;13.60;99.90
31639;DHT22;18248;51.522;7.020;2023-03-31T16:26:58;13.60;99.90
31639;DHT22;18248;51.522;7.020;2023-03-31T16:30:10;13.60;99.90
31639;DHT22;18248;51.522;7.020;2023-03-31T16:33:15;13.60;99.90
31639;DHT22;18248;51.522;7.020;2023-03-31T16:36:15;13.60;99.90
31639;DHT22;18248;51.522;7.020;2023-03-31T16:39:14;13.50;99.90
31639;DHT22;18248;51.522;7.020;2023-03-31T16:42:13;13.40;99.90
31639;DHT22;18248;51.522;7.020;2023-03-31T16:45:12;13.30;99.90
31639;DHT22;18248;51.522;7.020;2023-03-31T16:48:11;13.30;99.90
31639;DHT22;18248;51.522;7.020;2023-03-31T16:51:10;13.20;99.90
31639;DHT22;18248;51.522;7.020;2023-03-31T16:54:08;13.10;99.90
31639;DHT22;18248;51.522;7.020;2023-03-31T16:57:07;13.00;99.90
31639;DHT22;18248;51.522;7.020;2023-03-31T17:00:06;13.00;99.90
31639;DHT22;18248;51.522;7.020;2023-03-31T17:03:06;13.00;99.90
31639;DHT22;18248;51.522;7.020;2023-03-31T17:06:10;12.90;99.90
31639;DHT22;18248;51.522;7.020;2023-03-31T17:09:09;12.90;99.90
31639;DHT22;18248;51.522;7.020;2023-03-31T17:12:08;12.90;99.90
31639;DHT22;18248;51.522;7.020;2023-03-31T17:15:07;12.80;99.90
31639;DHT22;18248;51.522;7.020;2023-03-31T17:18:06;12.70;99.90
31639;DHT22;18248;51.522;7.020;2023-03-31T17:21:07;12.70;99.90
31639;DHT22;18248;51.522;7.020;2023-03-31T17:24:06;12.70;99.90
31639;DHT22;18248;51.522;7.020;2023-03-31T17:27:05;12.60;99.90
31639;DHT22;18248;51.522;7.020;2023-03-31T17:30:05;12.60;99.90
31639;DHT22;18248;51.522;7.020;2023-03-31T17:33:04;12.60;99.90
31639;DHT22;18248;51.522;7.020;2023-03-31T17:36:02;12.50;99.90
31639;DHT22;18248;51.522;7.020;2023-03-31T17:39:02;12.50;99.90
31639;DHT22;18248;51.522;7.020;2023-03-31T17:42:02;12.40;99.90
31639;DHT22;18248;51.522;7.020;2023-03-31T17:45:03;12.40;99.90
31639;DHT22;18248;51.522;7.020;2023-03-31T17:48:01;12.40;99.90
31639;DHT22;18248;51.522;7.020;2023-03-31T17:51:08;12.30;99.90
31639;DHT22;18248;51.522;7.020;2023-03-31T17:54:08;12.30;99.90
31639;DHT22;18248;51.522;7.020;2023-03-31T17:57:07;12.30;99.90
31639;DHT22;18248;51.522;7.020;2023-03-31T18:00:08;12.20;99.90
31639;DHT22;18248;51.522;7.020;2023-03-31T18:03:08;12.20;99.90
31639;DHT22;18248;51.522;7.020;2023-03-31T18:06:10;12.20;99.90
31639;DHT22;18248;51.522;7.020;2023-03-31T18:09:10;12.20;99.90
31639;DHT22;18248;51.522;7.020;2023-03-31T18:12:09;12.10;99.90
31639;DHT22;18248;51.522;7.020;2023-03-31T18:15:07;12.10;99.90
31639;DHT22;18248;51.522;7.020;2023-03-31T18:18:08;12.10;99.90
31639;DHT22;18248;51.522;7.020;2023-03-31T18:21:08;12.10;99.90
31639;DHT22;18248;51.522;7.020;2023-03-31T18:24:07;12.00;99.90
31639;DHT22;18248;51.522;7.020;2023-03-31T18:27:06;12.00;99.90
31639;DHT22;18248;51.522;7.020;2023-03-31T18:30:05;12.00;99.90
31639;DHT22;18248;51.522;7.020;2023-03-31T18:33:04;12.00;99.90
31639;DHT22;18248;51.522;7.020;2023-03-31T18:36:03;11.90;99.90
31639;DHT22;18248;51.522;7.020;2023-03-31T18:39:02;11.90;99.90
31639;DHT22;18248;51.522;7.020;2023-03-31T18:42:01;11.90;99.90
31639;DHT22;18248;51.522;7.020;2023-03-31T18:45:00;11.90;99.90
31639;DHT22;18248;51.522;7.020;2023-03-31T18:47:59;11.90;99.90
31639;DHT22;18248;51.522;7.020;2023-03-31T18:50:57;11.80;99.90
31639;DHT22;18248;51.522;7.020;2023-03-31T18:53:56;11.90;99.90
31639;DHT22;18248;51.522;7.020;2023-03-31T18:56:54;11.80;99.90
31639;DHT22;18248;51.522;7.020;2023-03-31T18:59:54;11.80;99.90
31639;DHT22;18248;51.522;7.020;2023-03-31T19:02:54;11.80;99.90
31639;DHT22;18248;51.522;7.020;2023-03-31T19:06:05;11.80;99.90
31639;DHT22;18248;51.522;7.020;2023-03-31T19:09:04;11.70;99.90
31639;DHT22;18248;51.522;7.020;2023-03-31T19:12:03;11.80;99.90
31639;DHT22;18248;51.522;7.020;2023-03-31T19:15:02;11.80;99.90
31639;DHT22;18248;51.522;7.020;2023-03-31T19:18:01;11.70;99.90
31639;DHT22;18248;51.522;7.020;2023-03-31T19:21:00;11.80;99.90
31639;DHT22;18248;51.522;7.020;2023-03-31T19:23:59;11.80;99.90
31639;DHT22;18248;51.522;7.020;2023-03-31T19:26:58;11.80;99.90
31639;DHT22;18248;51.522;7.020;2023-03-31T19:29:56;11.80;99.90
31639;DHT22;18248;51.522;7.020;2023-03-31T19:32:55;11.80;99.90
31639;DHT22;18248;51.522;7.020;2023-03-31T19:35:55;11.80;99.90
31639;DHT22;18248;51.522;7.020;2023-03-31T19:38:55;11.80;99.90
31639;DHT22;18248;51.522;7.020;2023-03-31T19:41:53;11.80;99.90
31639;DHT22;18248;51.522;7.020;2023-03-31T19:44:52;11.70;99.90
31639;DHT22;18248;51.522;7.020;2023-03-31T19:47:50;11.70;99.90
31639;DHT22;18248;51.522;7.020;2023-03-31T19:50:51;11.70;99.90
31639;DHT22;18248;51.522;7.020;2023-03-31T19:53:50;11.70;99.90
31639;DHT22;18248;51.522;7.020;2023-03-31T19:56:49;11.70;99.90
31639;DHT22;18248;51.522;7.020;2023-03-31T19:59:47;11.60;99.90
31639;DHT22;18248;51.522;7.020;2023-03-31T20:02:46;11.60;99.90
31639;DHT22;18248;51.522;7.020;2023-03-31T20:05:45;11.60;99.90
31639;DHT22;18248;51.522;7.020;2023-03-31T20:08:44;11.50;99.90
31639;DHT22;18248;51.522;7.020;2023-03-31T20:11:42;11.50;99.90
31639;DHT22;18248;51.522;7.020;2023-03-31T20:14:42;11.50;99.90
31639;DHT22;18248;51.522;7.020;2023-03-31T20:17:41;11.50;99.90
31639;DHT22;18248;51.522;7.020;2023-03-31T20:20:40;11.50;99.90
31639;DHT22;18248;51.522;7.020;2023-03-31T20:23:41;11.50;99.90
31639;DHT22;18248;51.522;7.020;2023-03-31T20:26:40;11.50;99.90
31639;DHT22;18248;51.522;7.020;2023-03-31T20:29:39;11.40;99.90
31639;DHT22;18248;51.522;7.020;2023-03-31T20:32:39;11.40;99.90
31639;DHT22;18248;51.522;7.020;2023-03-31T20:35:37;11.40;99.90
31639;DHT22;18248;51.522;7.020;2023-03-31T20:38:37;11.40;99.90
31639;DHT22;18248;51.522;7.020;2023-03-31T20:41:36;11.30;99.90
31639;DHT22;18248;51.522;7.020;2023-03-31T20:44:35;11.30;99.90
31639;DHT22;18248;51.522;7.020;2023-03-31T20:47:34;11.20;99.90
31639;DHT22;18248;51.522;7.020;2023-03-31T20:50:35;11.20;99.90
31639;DHT22;18248;51.522;7.020;2023-03-31T20:53:36;11.20;99.90
31639;DHT22;18248;51.522;7.020;2023-03-31T20:56:41;11.20;99.90
31639;DHT22;18248;51.522;7.020;2023-03-31T20:59:40;11.20;99.90
31639;DHT22;18248;51.522;7.020;2023-03-31T21:02:38;11.20;99.90
31639;DHT22;18248;51.522;7.020;2023-03-31T21:05:41;11.20;99.90
31639;DHT22;18248;51.522;7.020;2023-03-31T21:08:42;11.20;99.90
31639;DHT22;18248;51.522;7.020;2023-03-31T21:11:43;11.20;99.90
31639;DHT22;18248;51.522;7.020;2023-03-31T21:14:41;11.20;99.90
31639;DHT22;18248;51.522;7.020;2023-03-31T21:17:40;11.20;99.90
31639;DHT22;18248;51.522;7.020;2023-03-31T21:20:38;11.20;99.90
31639;DHT22;18248;51.522;7.020;2023-03-31T21:23:37;11.20;99.90
31639;DHT22;18248;51.522;7.020;2023-03-31T21:26:36;11.10;99.90
31639;DHT22;18248;51.522;7.020;2023-03-31T21:29:34;11.10;99.90
31639;DHT22;18248;51.522;7.020;2023-03-31T21:32:33;11.20;99.90
31639;DHT22;18248;51.522;7.020;2023-03-31T21:35:32;11.10;99.90
31639;DHT22;18248;51.522;7.020;2023-03-31T21:38:31;11.10;99.90
31639;DHT22;18248;51.522;7.020;2023-03-31T21:41:30;11.10;99.90
31639;DHT22;18248;51.522;7.020;2023-03-31T21:44:29;11.10;99.90
31639;DHT22;18248;51.522;7.020;2023-03-31T21:47:27;11.10;99.90
31639;DHT22;18248;51.522;7.020;2023-03-31T21:50:26;11.10;99.90
31639;DHT22;18248;51.522;7.020;2023-03-31T21:53:29;11.10;99.90